Latest Weather Observations for Nuriootpa

IDS60901

Issued at 5:35 pm CST Thursday 21 August 2014 (issued every 10 minutes, with the page automatically refreshed every 10 minutes)

About weather observations | Map of Adelaide area stations | Latest observations for Adelaide area | Other Formats
Station Details ID: 023373 Name: NURIOOTPA VITICULTURAL Lat: -34.48 Lon: 139.01 Height: 275.0 m
Data from the previous 72 hours. | See also: Recent months at Nuriootpa
Date/Time
CST
Tmp

°C
App
Tmp
°C
Dew
Point
°C
Rel
Hum
%
Delta-T

°C
Wind Press
QNH
hPa
Press
MSL
hPa
Rain
since
9 am
mm
Dir
 
Spd
km/h
Gust
km/h
Spd
kts
Gust
kts
21/05:30pm 13.4 10.7 5.6 59 3.7 ENE 9 13 5 7 1024.7 1025.0 0.0
21/05:00pm 14.3 10.8 5.5 55 4.2 NE 13 20 7 11 1024.6 1024.9 0.0
21/04:30pm 14.6 10.6 5.1 53 4.5 NE 15 24 8 13 1024.3 1024.6 0.0
21/04:00pm 14.9 10.6 5.3 52 4.6 ENE 17 22 9 12 1024.1 1024.4 0.0
21/03:30pm 14.6 11.0 5.1 53 4.5 ENE 13 17 7 9 1024.0 1024.3 0.0
21/03:00pm 14.7 11.2 5.5 54 4.4 ENE 13 20 7 11 1024.2 1024.5 0.0
21/02:30pm 14.9 11.4 5.5 53 4.5 ENE 13 19 7 10 1024.3 1024.6 0.0
21/02:00pm 14.2 11.1 5.4 55 4.2 ENE 11 20 6 11 1024.5 1024.8 0.0
21/01:30pm 13.9 9.2 5.2 55 4.1 NE 19 24 10 13 1024.6 1024.9 0.0
21/01:00pm 14.4 10.6 5.6 55 4.2 NE 15 24 8 13 1025.1 1025.4 0.0
21/12:30pm 13.7 8.9 4.4 53 4.3 NE 19 24 10 13 1025.5 1025.9 0.0
21/12:00pm 13.3 9.0 5.2 58 3.8 NE 17 24 9 13 1026.0 1026.3 0.0
21/11:30am 13.0 9.1 5.3 59 3.6 NE 15 20 8 11 1026.5 1026.8 0.0
21/11:00am 11.2 7.2 4.9 65 2.9 NE 15 20 8 11 1026.8 1027.1 0.0
21/10:30am 10.8 6.3 4.4 64 2.9 NE 17 22 9 12 1027.2 1027.5 0.0
21/10:00am 10.9 7.5 4.0 62 3.1 ENE 11 17 6 9 1027.3 1027.6 0.0
21/09:30am 10.5 6.7 3.8 63 3.0 NE 13 19 7 10 1027.4 1027.7 0.0
21/09:00am 9.2 5.3 3.2 66 2.6 ENE 13 19 7 10 1027.6 1027.9 0.0
21/08:30am 8.2 4.3 3.3 71 2.1 ENE 13 20 7 11 1027.6 1027.9 0.0
21/08:00am 8.3 4.3 2.6 67 2.4 ENE 13 19 7 10 1027.4 1027.7 0.0
21/07:30am 6.0 2.8 2.9 80 1.3 E 9 13 5 7 1027.1 1027.4 0.0
21/07:00am 5.9 2.6 2.2 77 1.5 ENE 9 11 5 6 1027.0 1027.3 0.0
21/06:30am 6.4 3.1 2.6 77 1.6 ENE 9 13 5 7 1026.6 1026.9 0.0
21/06:00am 6.3 3.0 2.4 76 1.6 E 9 13 5 7 1026.4 1026.7 0.0
21/05:30am 6.6 3.7 2.5 75 1.7 E 7 13 4 7 1026.4 1026.7 0.0
21/05:00am 6.4 3.5 2.8 78 1.5 E 7 11 4 6 1026.3 1026.6 0.0
21/04:30am 6.3 3.0 2.4 76 1.6 ENE 9 13 5 7 1026.4 1026.7 0.0
21/04:00am 6.1 2.8 2.2 76 1.6 E 9 15 5 8 1026.4 1026.7 0.0
21/03:30am 5.5 2.5 2.3 80 1.3 E 7 11 4 6 1026.3 1026.6 0.0
21/03:00am 5.2 2.4 2.3 81 1.2 E 6 9 3 5 1026.4 1026.7 0.0
21/02:30am 5.2 2.2 2.3 81 1.2 E 7 11 4 6 1026.6 1026.9 0.0
21/02:00am 5.5 2.5 2.3 80 1.3 E 7 9 4 5 1026.8 1027.1 0.0
21/01:30am 5.8 2.1 2.1 77 1.5 E 11 17 6 9 1026.9 1027.2 0.0
21/01:00am 6.2 2.9 2.3 76 1.6 ENE 9 13 5 7 1026.9 1027.2 0.0
21/12:30am 6.3 3.0 2.2 75 1.7 E 9 17 5 9 1026.8 1027.1 0.0
21/12:00am 6.3 3.0 2.4 76 1.6 ENE 9 13 5 7 1026.8 1027.1 0.0
 
Date/Time
CST
Tmp

°C
App
Tmp
°C
Dew
Point
°C
Rel
Hum
%
Delta-T

°C
Wind Press
QNH
hPa
Press
MSL
hPa
Rain
since
9 am
mm
Dir
 
Spd
km/h
Gust
km/h
Spd
kts
Gust
kts
20/11:30pm 6.5 3.2 2.4 75 1.7 E 9 15 5 8 1026.9 1027.2 0.0
20/11:00pm 6.6 2.2 2.5 75 1.7 ESE 15 24 8 13 1026.7 1027.0 0.0
20/10:30pm 6.9 2.0 2.3 72 1.9 ESE 17 26 9 14 1026.6 1026.9 0.0
20/10:00pm 7.1 2.6 2.3 71 2.0 ESE 15 24 8 13 1026.7 1027.0 0.0
20/09:30pm 7.4 2.6 2.4 70 2.1 SE 17 28 9 15 1026.7 1027.0 0.0
20/09:00pm 7.6 2.8 2.6 70 2.1 SE 17 26 9 14 1026.6 1026.9 0.0
20/08:30pm 7.9 2.2 2.7 69 2.2 SE 22 32 12 17 1026.6 1026.9 0.0
20/08:00pm 8.1 3.0 2.9 70 2.2 SE 19 30 10 16 1026.5 1026.8 0.0
20/07:30pm 8.3 3.6 3.2 70 2.2 SE 17 24 9 13 1026.4 1026.7 0.0
20/07:00pm 9.0 4.4 3.5 68 2.4 SE 17 28 9 15 1026.2 1026.5 0.0
20/06:30pm 9.1 5.3 3.9 70 2.3 SE 13 19 7 10 1026.1 1026.4 0.0
20/06:00pm 9.2 6.2 4.3 71 2.2 ESE 9 13 5 7 1025.8 1026.1 0.0
20/05:30pm 10.4 7.0 4.2 65 2.8 SE 11 13 6 7 1025.8 1026.1 0.0
20/05:00pm 11.3 8.3 4.0 61 3.3 SE 9 13 5 7 1025.7 1026.0 0.0
20/04:30pm 11.8 9.3 3.8 58 3.6 SE 6 7 3 4 1025.7 1026.0 0.0
20/04:00pm 12.1 9.5 4.2 58 3.6 E 7 9 4 5 1025.5 1025.9 0.0
20/03:30pm 12.2 9.7 3.5 55 3.9 SSE 6 9 3 5 1025.5 1025.9 0.0
20/03:00pm 12.0 9.2 3.3 55 3.9 SSE 7 11 4 6 1025.7 1026.0 0.0
20/02:30pm 11.9 9.0 4.5 60 3.4 SE 9 13 5 7 1025.7 1026.0 0.0
20/02:00pm 11.7 8.5 3.1 55 3.8 E 9 11 5 6 1025.8 1026.1 0.0
20/01:30pm 12.0 8.6 3.8 57 3.7 ESE 11 15 6 8 1025.8 1026.1 0.0
20/01:00pm 11.7 8.3 3.9 59 3.5 SE 11 15 6 8 1026.1 1026.4 0.0
20/12:30pm 11.6 8.1 3.3 56 3.7 ESE 11 15 6 8 1026.6 1026.9 0.0
20/12:00pm 11.2 7.3 3.6 59 3.4 ESE 13 22 7 12 1026.9 1027.2 0.0
20/11:30am 10.8 6.6 3.9 62 3.1 E 15 20 8 11 1027.3 1027.6 0.0
20/11:00am 10.6 5.9 3.3 60 3.2 E 17 24 9 13 1027.5 1027.8 0.0
20/10:30am 9.9 5.6 3.0 62 3.0 ESE 15 24 8 13 1027.5 1027.8 0.0
20/10:00am 9.4 4.2 2.6 62 2.9 ESE 19 28 10 15 1027.6 1027.9 0.0
20/09:30am 9.3 4.6 3.1 65 2.7 ESE 17 26 9 14 1027.5 1027.8 0.0
20/09:00am 8.4 3.7 3.0 69 2.3 E 17 28 9 15 1027.5 1027.8 0.0
20/08:30am 7.7 3.7 3.0 72 2.0 E 13 19 7 10 1027.4 1027.7 0.0
20/08:00am 6.8 3.2 3.0 77 1.6 E 11 19 6 10 1027.1 1027.4 0.0
20/07:30am 6.2 3.0 2.9 79 1.4 E 9 13 5 7 1026.8 1027.1 0.0
20/07:00am 5.1 2.3 2.9 86 0.9 E 7 13 4 7 1026.5 1026.8 0.0
20/06:30am 5.1 2.3 2.9 86 0.9 ENE 7 11 4 6 1026.2 1026.5 0.0
20/06:00am 5.4 2.6 3.3 86 0.9 NE 7 11 4 6 1026.1 1026.4 0.0
20/05:30am 5.3 2.2 3.6 89 0.7 NE 9 19 5 10 1025.9 1026.2 0.0
20/05:00am 5.5 3.0 3.9 89 0.7 E 6 13 3 7 1025.9 1026.2 0.0
20/04:30am 5.4 2.7 3.8 89 0.7 ENE 7 11 4 6 1025.8 1026.1 0.0
20/04:00am 5.0 2.9 3.8 92 0.5 N 4 9 2 5 1025.5 1025.9 0.0
20/03:30am 5.2 2.5 3.8 91 0.6 NE 7 11 4 6 1025.4 1025.8 0.0
20/03:00am 5.7 2.7 4.1 89 0.7 E 9 13 5 7 1025.4 1025.8 0.0
20/02:30am 6.0 3.0 4.1 88 0.8 E 9 17 5 9 1025.5 1025.9 0.0
20/02:00am 6.0 2.6 3.9 86 0.9 E 11 15 6 8 1025.7 1026.0 0.0
20/01:30am 6.2 3.6 4.1 86 0.9 E 7 13 4 7 1025.9 1026.2 0.0
20/01:00am 6.9 3.5 4.1 82 1.2 ESE 11 20 6 11 1025.8 1026.1 0.0
20/12:30am 7.7 3.2 4.3 79 1.5 SE 17 26 9 14 1025.5 1025.9 0.0
20/12:00am 7.5 3.8 4.6 82 1.3 SE 13 17 7 9 1025.5 1025.9 0.0
 
Date/Time
CST
Tmp

°C
App
Tmp
°C
Dew
Point
°C
Rel
Hum
%
Delta-T

°C
Wind Press
QNH
hPa
Press
MSL
hPa
Rain
since
9 am
mm
Dir
 
Spd
km/h
Gust
km/h
Spd
kts
Gust
kts
19/11:30pm 8.2 3.8 4.6 78 1.6 SE 17 22 9 12 1025.4 1025.8 0.0
19/11:00pm 8.6 3.9 5.1 79 1.6 SSE 19 22 10 12 1025.7 1026.0 0.0
19/10:30pm 8.7 5.1 4.9 77 1.7 SSE 13 20 7 11 1025.9 1026.2 0.0
19/10:00pm 8.8 3.8 4.5 74 1.9 SSE 20 26 11 14 1025.9 1026.2 0.0
19/09:30pm 8.9 4.4 4.4 73 2.0 SSE 17 24 9 13 1025.9 1026.2 0.0
19/09:00pm 9.0 4.1 4.0 71 2.2 SSE 19 24 10 13 1026.0 1026.3 0.0
19/08:30pm 8.6 5.6 4.1 73 2.0 S 9 13 5 7 1026.0 1026.3 0.0
19/08:00pm 8.9 5.5 3.9 71 2.2 S 11 15 6 8 1025.9 1026.2 0.0
19/07:30pm 9.5 5.3 3.6 66 2.6 SSE 15 20 8 11 1025.9 1026.2 0.0
19/07:00pm 9.9 5.6 3.3 63 2.9 SSE 15 19 8 10 1025.7 1026.0 0.0
19/06:30pm 10.1 6.9 3.3 62 3.0 SE 9 11 5 6 1025.3 1025.7 0.0
19/06:00pm 10.5 6.8 2.1 56 3.6 SSE 11 15 6 8 1025.0 1025.3 0.0
19/05:30pm 10.6 7.3 2.2 56 3.6 ESE 9 13 5 7 1024.7 1025.0 0.0
19/05:00pm 11.2 7.5 2.5 55 3.8 SSE 11 17 6 9 1024.5 1024.8 0.0
19/04:30pm 11.4 7.3 2.2 53 4.0 S 13 19 7 10 1024.4 1024.7 0.0
19/04:00pm 11.9 8.9 2.3 52 4.2 SE 7 15 4 8 1024.2 1024.5 0.0
19/03:30pm 12.2 7.4 2.4 51 4.3 SE 17 24 9 13 1024.3 1024.6 0.0
19/03:00pm 11.8 6.4 1.5 49 4.4 S 19 26 10 14 1024.3 1024.6 0.0
19/02:30pm 11.5 6.9 1.4 50 4.3 SSE 15 30 8 16 1024.4 1024.7 0.0
19/02:00pm 12.5 9.0 1.3 46 4.8 SSE 9 19 5 10 1024.3 1024.6 0.0
19/01:30pm 11.6 7.4 1.6 50 4.3 S 13 20 7 11 1024.5 1024.8 0.0
19/01:00pm 11.5 7.2 1.1 49 4.4 SSE 13 19 7 10 1024.7 1025.0 0.0
19/12:30pm 11.4 7.5 1.3 50 4.3 SE 11 19 6 10 1025.1 1025.4 0.0
19/12:00pm 10.6 5.7 1.7 54 3.8 SE 17 30 9 16 1025.5 1025.9 0.0
19/11:30am 11.0 5.9 1.0 50 4.2 SSE 17 24 9 13 1025.8 1026.1 0.0
19/11:00am 10.4 4.5 1.7 55 3.7 SSE 22 26 12 14 1026.2 - 0.0
19/10:30am 9.5 4.2 1.9 59 3.2 SSE 19 26 10 14 1026.5 1026.8 0.0
19/10:00am 9.0 4.2 2.7 64 2.7 SE 17 24 9 13 1026.4 - 0.0
19/09:30am 8.6 3.6 1.6 61 2.9 SE 17 28 9 15 1026.4 1026.7 0.0
19/09:00am 8.3 3.8 2.1 65 2.6 SSE 15 20 8 11 1026.4 1026.7 0.4
19/08:30am 8.1 5.1 1.9 65 2.6 S 7 13 4 7 1026.1 1026.4 0.4
19/08:00am 7.5 4.6 2.5 70 2.1 S 7 9 4 5 1026.0 - 0.4
19/07:30am 7.1 4.1 2.0 70 2.1 SSW 7 13 4 7 1025.7 1026.0 0.4
19/07:00am 6.9 3.5 2.1 71 2.0 S 9 13 5 7 1025.4 - 0.0
19/06:30am 7.2 3.8 1.9 69 2.2 S 9 13 5 7 1025.0 1025.3 0.0
19/06:00am 7.4 4.0 2.1 69 2.2 S 9 11 5 6 1024.8 1025.1 0.0
19/05:30am 7.5 4.5 2.0 68 2.3 S 7 11 4 6 1024.7 1025.0 0.0
19/05:00am 7.5 3.8 2.2 69 2.2 SSE 11 17 6 9 1024.5 - 0.0
19/04:30am 6.0 3.2 3.4 83 1.1 SSE 7 13 4 7 1024.4 1024.7 0.0
19/04:00am 5.0 3.7 4.3 95 0.3 CALM 0 0 0 0 1024.3 - 0.0
19/03:30am 4.9 3.6 4.0 94 0.4 CALM 0 0 0 0 1024.5 1024.8 0.0
19/03:00am 4.8 3.1 3.9 94 0.4 NNE 2 6 1 3 1024.5 1024.8 0.0
19/02:30am 4.5 2.0 3.5 93 0.4 NE 6 7 3 4 1024.7 1025.0 0.0
19/02:00am 4.3 1.7 3.3 93 0.4 NE 6 7 3 4 1024.9 - 0.0
19/01:30am 4.2 2.0 3.5 95 0.3 NE 4 9 2 5 1024.9 1025.2 0.0
19/01:00am 3.7 2.2 3.0 95 0.3 CALM 0 0 0 0 1025.1 - 0.0
19/12:30am 3.3 1.7 2.6 95 0.3 CALM 0 0 0 0 1025.0 1025.3 0.0
19/12:00am 2.5 0.8 1.7 94 0.3 CALM 0 0 0 0 1025.2 1025.6 0.0
 
Date/Time
CST
Tmp

°C
App
Tmp
°C
Dew
Point
°C
Rel
Hum
%
Delta-T

°C
Wind Press
QNH
hPa
Press
MSL
hPa
Rain
since
9 am
mm
Dir
 
Spd
km/h
Gust
km/h
Spd
kts
Gust
kts
18/11:30pm 3.0 1.4 2.2 94 0.3 CALM 0 0 0 0 1025.4 1025.8 0.0
18/11:00pm 3.8 1.0 2.1 89 0.7 ESE 6 9 3 5 1025.4 - 0.0
18/10:30pm 6.6 3.3 2.5 75 1.7 SE 9 15 5 8 1025.3 1025.7 0.0
18/10:00pm 7.3 4.4 2.8 73 1.9 S 7 17 4 9 1025.4 - 0.0
18/09:30pm 7.0 3.1 3.5 78 1.5 S 13 19 7 10 1025.3 1025.7 0.0
18/09:00pm 6.6 3.8 3.3 79 1.4 S 7 11 4 6 1025.1 1025.4 0.0
18/08:30pm 7.3 4.8 3.8 78 1.5 S 6 - 3 - - 1025.2 -
18/08:00pm 7.7 2.7 3.5 75 1.8 SSE 19 26 10 14 1024.6 - 0.0
18/07:30pm 8.0 3.8 3.6 74 1.9 SSE 15 20 8 11 1024.4 1024.7 0.0
18/07:00pm 9.2 4.1 3.2 66 2.6 SSE 19 24 10 13 1024.1 - 0.0
18/06:30pm 8.9 6.8 3.7 70 2.3 SSW 4 11 2 6 1023.8 1024.1 0.0
18/06:00pm 9.6 6.1 3.4 65 2.7 SSE 11 17 6 9 1023.5 1023.8 0.0

Latest Capital City Observations: Canberra | Sydney | Melbourne | Brisbane | Adelaide | Perth | Hobart | Darwin

Other Formats:

Comma delimited format used in spreadsheet applications
http://www.bom.gov.au/fwo/IDS60901/IDS60901.94681.axf

JavaScript Object Notation format (JSON) in row-major order
http://www.bom.gov.au/fwo/IDS60901/IDS60901.94681.json